sensor_id;sensor_type;location;lat;lon;timestamp;temperature;humidity
5870;DHT22;2961;47.702;9.410;2023-05-07T00:00:20;15.30;99.90
5870;DHT22;2961;47.702;9.410;2023-05-07T00:02:48;15.30;99.90
5870;DHT22;2961;47.702;9.410;2023-05-07T00:05:15;15.30;99.90
5870;DHT22;2961;47.702;9.410;2023-05-07T00:07:42;15.20;99.90
5870;DHT22;2961;47.702;9.410;2023-05-07T00:10:10;15.20;99.90
5870;DHT22;2961;47.702;9.410;2023-05-07T00:12:37;15.10;99.90
5870;DHT22;2961;47.702;9.410;2023-05-07T00:15:05;14.90;99.90
5870;DHT22;2961;47.702;9.410;2023-05-07T00:17:33;14.80;99.90
5870;DHT22;2961;47.702;9.410;2023-05-07T00:20:01;14.70;99.90
5870;DHT22;2961;47.702;9.410;2023-05-07T00:22:29;14.70;99.90
5870;DHT22;2961;47.702;9.410;2023-05-07T00:24:56;14.60;99.90
5870;DHT22;2961;47.702;9.410;2023-05-07T00:27:23;14.80;99.90
5870;DHT22;2961;47.702;9.410;2023-05-07T00:29:50;14.70;99.90
5870;DHT22;2961;47.702;9.410;2023-05-07T00:32:16;14.70;99.90
5870;DHT22;2961;47.702;9.410;2023-05-07T00:34:43;14.70;99.90
5870;DHT22;2961;47.702;9.410;2023-05-07T00:37:12;14.70;99.90
5870;DHT22;2961;47.702;9.410;2023-05-07T00:39:38;14.60;99.90
5870;DHT22;2961;47.702;9.410;2023-05-07T00:42:05;14.70;99.90
5870;DHT22;2961;47.702;9.410;2023-05-07T00:44:32;14.70;99.90
5870;DHT22;2961;47.702;9.410;2023-05-07T00:47:02;14.70;99.90
5870;DHT22;2961;47.702;9.410;2023-05-07T00:49:37;14.70;99.90
5870;DHT22;2961;47.702;9.410;2023-05-07T00:52:05;14.70;99.90
5870;DHT22;2961;47.702;9.410;2023-05-07T00:54:34;14.80;99.90
5870;DHT22;2961;47.702;9.410;2023-05-07T00:57:02;14.80;99.90
5870;DHT22;2961;47.702;9.410;2023-05-07T00:59:30;14.80;99.90
5870;DHT22;2961;47.702;9.410;2023-05-07T01:01:57;14.90;99.90
5870;DHT22;2961;47.702;9.410;2023-05-07T01:04:23;14.90;99.90
5870;DHT22;2961;47.702;9.410;2023-05-07T01:06:52;14.90;99.90
5870;DHT22;2961;47.702;9.410;2023-05-07T01:09:19;14.90;99.90
5870;DHT22;2961;47.702;9.410;2023-05-07T01:11:49;14.80;99.90
5870;DHT22;2961;47.702;9.410;2023-05-07T01:14:17;14.70;99.90
5870;DHT22;2961;47.702;9.410;2023-05-07T01:16:44;14.60;99.90
5870;DHT22;2961;47.702;9.410;2023-05-07T01:19:12;14.60;99.90
5870;DHT22;2961;47.702;9.410;2023-05-07T01:21:43;14.50;99.90
5870;DHT22;2961;47.702;9.410;2023-05-07T01:24:12;14.40;99.90
5870;DHT22;2961;47.702;9.410;2023-05-07T01:26:40;14.30;99.90
5870;DHT22;2961;47.702;9.410;2023-05-07T01:29:06;14.30;99.90
5870;DHT22;2961;47.702;9.410;2023-05-07T01:31:34;14.30;99.90
5870;DHT22;2961;47.702;9.410;2023-05-07T01:34:01;14.20;99.90
5870;DHT22;2961;47.702;9.410;2023-05-07T01:36:30;14.10;99.90
5870;DHT22;2961;47.702;9.410;2023-05-07T01:38:59;14.10;99.90
5870;DHT22;2961;47.702;9.410;2023-05-07T01:41:27;14.00;99.90
5870;DHT22;2961;47.702;9.410;2023-05-07T01:43:55;14.00;99.90
5870;DHT22;2961;47.702;9.410;2023-05-07T01:46:21;13.90;99.90
5870;DHT22;2961;47.702;9.410;2023-05-07T01:48:49;13.90;99.90
5870;DHT22;2961;47.702;9.410;2023-05-07T01:51:16;13.80;99.90
5870;DHT22;2961;47.702;9.410;2023-05-07T01:53:45;13.90;99.90
5870;DHT22;2961;47.702;9.410;2023-05-07T01:56:16;13.80;99.90
5870;DHT22;2961;47.702;9.410;2023-05-07T01:58:44;13.70;99.90
5870;DHT22;2961;47.702;9.410;2023-05-07T02:01:12;13.60;99.90
5870;DHT22;2961;47.702;9.410;2023-05-07T02:03:39;13.60;99.90
5870;DHT22;2961;47.702;9.410;2023-05-07T02:06:06;13.50;99.90
5870;DHT22;2961;47.702;9.410;2023-05-07T02:08:33;13.40;99.90
5870;DHT22;2961;47.702;9.410;2023-05-07T02:11:00;13.30;99.90
5870;DHT22;2961;47.702;9.410;2023-05-07T02:13:29;13.20;99.90
5870;DHT22;2961;47.702;9.410;2023-05-07T02:15:58;13.20;99.90
5870;DHT22;2961;47.702;9.410;2023-05-07T02:18:25;13.00;99.90
5870;DHT22;2961;47.702;9.410;2023-05-07T02:20:52;13.00;99.90
5870;DHT22;2961;47.702;9.410;2023-05-07T02:23:18;12.90;99.90
5870;DHT22;2961;47.702;9.410;2023-05-07T02:25:45;12.80;99.90
5870;DHT22;2961;47.702;9.410;2023-05-07T02:28:12;12.80;99.90
5870;DHT22;2961;47.702;9.410;2023-05-07T02:30:39;12.70;99.90
5870;DHT22;2961;47.702;9.410;2023-05-07T02:33:07;12.70;99.90
5870;DHT22;2961;47.702;9.410;2023-05-07T02:35:35;12.50;99.90
5870;DHT22;2961;47.702;9.410;2023-05-07T02:38:01;12.40;99.90
5870;DHT22;2961;47.702;9.410;2023-05-07T02:40:28;12.30;99.90
5870;DHT22;2961;47.702;9.410;2023-05-07T02:42:55;12.10;99.90
5870;DHT22;2961;47.702;9.410;2023-05-07T02:45:22;12.00;99.90
5870;DHT22;2961;47.702;9.410;2023-05-07T02:47:48;11.90;99.90
5870;DHT22;2961;47.702;9.410;2023-05-07T02:50:17;11.90;99.90
5870;DHT22;2961;47.702;9.410;2023-05-07T02:52:43;11.90;99.90
5870;DHT22;2961;47.702;9.410;2023-05-07T02:55:10;11.80;99.90
5870;DHT22;2961;47.702;9.410;2023-05-07T02:57:37;11.90;99.90
5870;DHT22;2961;47.702;9.410;2023-05-07T03:00:12;11.70;99.90
5870;DHT22;2961;47.702;9.410;2023-05-07T03:02:39;11.60;99.90
5870;DHT22;2961;47.702;9.410;2023-05-07T03:05:06;11.60;99.90
5870;DHT22;2961;47.702;9.410;2023-05-07T03:07:34;11.70;99.90
5870;DHT22;2961;47.702;9.410;2023-05-07T03:10:01;11.60;99.90
5870;DHT22;2961;47.702;9.410;2023-05-07T03:12:28;11.50;99.90
5870;DHT22;2961;47.702;9.410;2023-05-07T03:14:55;11.40;99.90
5870;DHT22;2961;47.702;9.410;2023-05-07T03:17:22;11.30;99.90
5870;DHT22;2961;47.702;9.410;2023-05-07T03:19:48;11.20;99.90
5870;DHT22;2961;47.702;9.410;2023-05-07T03:22:15;11.10;99.90
5870;DHT22;2961;47.702;9.410;2023-05-07T03:24:43;11.00;99.90
5870;DHT22;2961;47.702;9.410;2023-05-07T03:27:10;11.00;99.90
5870;DHT22;2961;47.702;9.410;2023-05-07T03:29:37;11.00;99.90
5870;DHT22;2961;47.702;9.410;2023-05-07T03:32:04;10.90;99.90
5870;DHT22;2961;47.702;9.410;2023-05-07T03:34:31;10.80;99.90
5870;DHT22;2961;47.702;9.410;2023-05-07T03:36:58;10.70;99.90
5870;DHT22;2961;47.702;9.410;2023-05-07T03:39:24;10.80;99.90
5870;DHT22;2961;47.702;9.410;2023-05-07T03:41:53;10.90;99.90
5870;DHT22;2961;47.702;9.410;2023-05-07T03:44:19;10.70;99.90
5870;DHT22;2961;47.702;9.410;2023-05-07T03:46:46;10.60;99.90
5870;DHT22;2961;47.702;9.410;2023-05-07T03:49:13;10.40;99.90
5870;DHT22;2961;47.702;9.410;2023-05-07T03:51:40;10.30;99.90
5870;DHT22;2961;47.702;9.410;2023-05-07T03:54:07;10.40;99.90
5870;DHT22;2961;47.702;9.410;2023-05-07T03:56:33;10.40;99.90
5870;DHT22;2961;47.702;9.410;2023-05-07T03:59:02;10.30;99.90
5870;DHT22;2961;47.702;9.410;2023-05-07T04:01:29;10.30;99.90
5870;DHT22;2961;47.702;9.410;2023-05-07T04:03:56;10.30;99.90
5870;DHT22;2961;47.702;9.410;2023-05-07T04:06:23;10.30;99.90
5870;DHT22;2961;47.702;9.410;2023-05-07T04:08:49;10.30;99.90
5870;DHT22;2961;47.702;9.410;2023-05-07T04:11:16;10.20;99.90
5870;DHT22;2961;47.702;9.410;2023-05-07T04:13:43;10.30;99.90
5870;DHT22;2961;47.702;9.410;2023-05-07T04:16:11;10.30;99.90
5870;DHT22;2961;47.702;9.410;2023-05-07T04:18:38;10.30;99.90
5870;DHT22;2961;47.702;9.410;2023-05-07T04:21:05;10.30;99.90
5870;DHT22;2961;47.702;9.410;2023-05-07T04:23:31;10.30;99.90
5870;DHT22;2961;47.702;9.410;2023-05-07T04:25:58;10.30;99.90
5870;DHT22;2961;47.702;9.410;2023-05-07T04:28:26;10.40;99.90
5870;DHT22;2961;47.702;9.410;2023-05-07T04:30:53;10.50;99.90
5870;DHT22;2961;47.702;9.410;2023-05-07T04:33:21;10.60;99.90
5870;DHT22;2961;47.702;9.410;2023-05-07T04:35:48;10.80;99.90
5870;DHT22;2961;47.702;9.410;2023-05-07T04:38:14;10.90;99.90
5870;DHT22;2961;47.702;9.410;2023-05-07T04:40:42;11.00;99.90
5870;DHT22;2961;47.702;9.410;2023-05-07T04:43:08;11.00;99.90
5870;DHT22;2961;47.702;9.410;2023-05-07T04:45:35;11.10;99.90
5870;DHT22;2961;47.702;9.410;2023-05-07T04:48:02;11.20;99.90
5870;DHT22;2961;47.702;9.410;2023-05-07T04:50:30;11.40;99.90
5870;DHT22;2961;47.702;9.410;2023-05-07T04:52:57;11.50;99.90
5870;DHT22;2961;47.702;9.410;2023-05-07T04:55:24;11.60;99.90
5870;DHT22;2961;47.702;9.410;2023-05-07T04:57:52;11.80;99.90
5870;DHT22;2961;47.702;9.410;2023-05-07T05:00:19;12.00;99.90
5870;DHT22;2961;47.702;9.410;2023-05-07T05:02:46;12.10;99.90
5870;DHT22;2961;47.702;9.410;2023-05-07T05:05:12;12.40;99.90
5870;DHT22;2961;47.702;9.410;2023-05-07T05:07:41;12.70;99.90
5870;DHT22;2961;47.702;9.410;2023-05-07T05:10:08;13.00;99.90
5870;DHT22;2961;47.702;9.410;2023-05-07T05:12:34;13.40;99.90
5870;DHT22;2961;47.702;9.410;2023-05-07T05:15:01;14.10;99.90
5870;DHT22;2961;47.702;9.410;2023-05-07T05:17:28;15.30;99.90
5870;DHT22;2961;47.702;9.410;2023-05-07T05:19:54;16.10;99.90
5870;DHT22;2961;47.702;9.410;2023-05-07T05:22:21;17.20;99.90
5870;DHT22;2961;47.702;9.410;2023-05-07T05:24:49;18.10;99.90
5870;DHT22;2961;47.702;9.410;2023-05-07T05:27:16;19.10;99.90
5870;DHT22;2961;47.702;9.410;2023-05-07T05:29:43;20.10;99.90
5870;DHT22;2961;47.702;9.410;2023-05-07T05:32:10;20.50;99.90
5870;DHT22;2961;47.702;9.410;2023-05-07T05:34:36;20.90;99.90
5870;DHT22;2961;47.702;9.410;2023-05-07T05:37:03;21.50;99.90
5870;DHT22;2961;47.702;9.410;2023-05-07T05:39:30;22.00;99.90
5870;DHT22;2961;47.702;9.410;2023-05-07T05:41:58;22.50;99.90
5870;DHT22;2961;47.702;9.410;2023-05-07T05:44:25;23.10;99.90
5870;DHT22;2961;47.702;9.410;2023-05-07T05:46:51;23.80;97.20
5870;DHT22;2961;47.702;9.410;2023-05-07T05:49:20;24.30;95.50
5870;DHT22;2961;47.702;9.410;2023-05-07T05:51:47;24.50;93.20
5870;DHT22;2961;47.702;9.410;2023-05-07T05:54:14;24.60;91.50
5870;DHT22;2961;47.702;9.410;2023-05-07T05:56:41;24.30;92.40
5870;DHT22;2961;47.702;9.410;2023-05-07T05:59:10;24.50;91.90
5870;DHT22;2961;47.702;9.410;2023-05-07T06:01:37;24.60;91.30
5870;DHT22;2961;47.702;9.410;2023-05-07T06:04:04;24.50;91.40
5870;DHT22;2961;47.702;9.410;2023-05-07T06:06:31;25.10;88.50
5870;DHT22;2961;47.702;9.410;2023-05-07T06:08:57;25.40;88.70
5870;DHT22;2961;47.702;9.410;2023-05-07T06:11:24;25.80;85.70
5870;DHT22;2961;47.702;9.410;2023-05-07T06:13:51;25.60;86.80
5870;DHT22;2961;47.702;9.410;2023-05-07T06:16:19;25.70;85.50
5870;DHT22;2961;47.702;9.410;2023-05-07T06:18:46;25.60;84.60
5870;DHT22;2961;47.702;9.410;2023-05-07T06:21:13;26.00;85.10
5870;DHT22;2961;47.702;9.410;2023-05-07T06:23:40;26.50;83.20
5870;DHT22;2961;47.702;9.410;2023-05-07T06:26:07;27.00;79.80
5870;DHT22;2961;47.702;9.410;2023-05-07T06:28:34;27.30;79.90
5870;DHT22;2961;47.702;9.410;2023-05-07T06:31:12;27.80;77.30
5870;DHT22;2961;47.702;9.410;2023-05-07T06:33:40;28.00;77.90
5870;DHT22;2961;47.702;9.410;2023-05-07T06:36:07;28.20;74.50
5870;DHT22;2961;47.702;9.410;2023-05-07T06:38:34;28.30;72.10
5870;DHT22;2961;47.702;9.410;2023-05-07T06:41:01;28.10;73.80
5870;DHT22;2961;47.702;9.410;2023-05-07T06:43:28;27.70;74.50
5870;DHT22;2961;47.702;9.410;2023-05-07T06:45:55;27.50;74.40
5870;DHT22;2961;47.702;9.410;2023-05-07T06:48:22;27.80;74.30
5870;DHT22;2961;47.702;9.410;2023-05-07T06:50:50;28.00;71.20
5870;DHT22;2961;47.702;9.410;2023-05-07T06:53:17;28.10;72.10
5870;DHT22;2961;47.702;9.410;2023-05-07T06:55:44;28.20;71.00
5870;DHT22;2961;47.702;9.410;2023-05-07T06:58:11;28.70;68.80
5870;DHT22;2961;47.702;9.410;2023-05-07T07:00:37;28.70;69.00
5870;DHT22;2961;47.702;9.410;2023-05-07T07:03:04;29.00;70.20
5870;DHT22;2961;47.702;9.410;2023-05-07T07:05:31;29.40;65.70
5870;DHT22;2961;47.702;9.410;2023-05-07T07:07:59;29.40;68.30
5870;DHT22;2961;47.702;9.410;2023-05-07T07:10:26;29.30;66.70
5870;DHT22;2961;47.702;9.410;2023-05-07T07:12:52;28.70;67.60
5870;DHT22;2961;47.702;9.410;2023-05-07T07:15:20;28.50;67.00
5870;DHT22;2961;47.702;9.410;2023-05-07T07:17:47;28.30;70.60
5870;DHT22;2961;47.702;9.410;2023-05-07T07:20:14;28.20;69.20
5870;DHT22;2961;47.702;9.410;2023-05-07T07:22:41;28.10;69.60
5870;DHT22;2961;47.702;9.410;2023-05-07T07:25:10;28.20;70.70
5870;DHT22;2961;47.702;9.410;2023-05-07T07:27:37;28.70;68.30
5870;DHT22;2961;47.702;9.410;2023-05-07T07:30:06;29.10;66.20
5870;DHT22;2961;47.702;9.410;2023-05-07T07:32:34;28.80;65.80
5870;DHT22;2961;47.702;9.410;2023-05-07T07:35:01;28.30;66.80
5870;DHT22;2961;47.702;9.410;2023-05-07T07:37:28;28.40;68.90
5870;DHT22;2961;47.702;9.410;2023-05-07T07:39:55;28.50;69.40
5870;DHT22;2961;47.702;9.410;2023-05-07T07:42:23;28.50;68.10
5870;DHT22;2961;47.702;9.410;2023-05-07T07:44:50;28.40;67.30
5870;DHT22;2961;47.702;9.410;2023-05-07T07:47:17;28.00;66.60
5870;DHT22;2961;47.702;9.410;2023-05-07T07:49:44;28.00;69.00
5870;DHT22;2961;47.702;9.410;2023-05-07T07:52:10;28.10;71.20
5870;DHT22;2961;47.702;9.410;2023-05-07T07:54:37;28.50;70.80
5870;DHT22;2961;47.702;9.410;2023-05-07T07:57:04;28.60;69.90
5870;DHT22;2961;47.702;9.410;2023-05-07T07:59:32;28.70;68.40
5870;DHT22;2961;47.702;9.410;2023-05-07T08:01:59;28.50;67.90
5870;DHT22;2961;47.702;9.410;2023-05-07T08:04:26;29.30;67.30
5870;DHT22;2961;47.702;9.410;2023-05-07T08:06:53;29.20;66.70
5870;DHT22;2961;47.702;9.410;2023-05-07T08:09:21;29.10;67.80
5870;DHT22;2961;47.702;9.410;2023-05-07T08:11:48;28.40;68.90
5870;DHT22;2961;47.702;9.410;2023-05-07T08:14:15;28.00;68.10
5870;DHT22;2961;47.702;9.410;2023-05-07T08:16:43;27.60;69.10
5870;DHT22;2961;47.702;9.410;2023-05-07T08:19:10;27.10;70.30
5870;DHT22;2961;47.702;9.410;2023-05-07T08:21:39;27.10;70.90
5870;DHT22;2961;47.702;9.410;2023-05-07T08:24:06;27.30;70.10
5870;DHT22;2961;47.702;9.410;2023-05-07T08:26:33;27.20;71.80
5870;DHT22;2961;47.702;9.410;2023-05-07T08:29:01;27.30;72.00
5870;DHT22;2961;47.702;9.410;2023-05-07T08:31:28;26.90;73.20
5870;DHT22;2961;47.702;9.410;2023-05-07T08:33:56;27.30;71.90
5870;DHT22;2961;47.702;9.410;2023-05-07T08:36:23;27.10;71.20
5870;DHT22;2961;47.702;9.410;2023-05-07T08:38:51;26.60;73.70
5870;DHT22;2961;47.702;9.410;2023-05-07T08:41:18;26.20;75.20
5870;DHT22;2961;47.702;9.410;2023-05-07T08:43:48;25.80;75.80
5870;DHT22;2961;47.702;9.410;2023-05-07T08:46:17;25.50;75.50
5870;DHT22;2961;47.702;9.410;2023-05-07T08:48:45;24.90;80.00
5870;DHT22;2961;47.702;9.410;2023-05-07T08:51:16;24.50;78.40
5870;DHT22;2961;47.702;9.410;2023-05-07T08:53:43;24.00;78.70
5870;DHT22;2961;47.702;9.410;2023-05-07T08:56:10;23.80;80.60
5870;DHT22;2961;47.702;9.410;2023-05-07T08:58:37;23.80;82.30
5870;DHT22;2961;47.702;9.410;2023-05-07T09:01:07;23.80;82.10
5870;DHT22;2961;47.702;9.410;2023-05-07T09:03:35;24.00;82.30
5870;DHT22;2961;47.702;9.410;2023-05-07T09:06:03;24.20;80.40
5870;DHT22;2961;47.702;9.410;2023-05-07T09:08:32;24.20;80.70
5870;DHT22;2961;47.702;9.410;2023-05-07T09:10:59;23.90;79.60
5870;DHT22;2961;47.702;9.410;2023-05-07T09:13:27;24.10;82.10
5870;DHT22;2961;47.702;9.410;2023-05-07T09:15:54;24.20;81.50
5870;DHT22;2961;47.702;9.410;2023-05-07T09:18:23;24.10;81.00
5870;DHT22;2961;47.702;9.410;2023-05-07T09:20:50;24.00;81.70
5870;DHT22;2961;47.702;9.410;2023-05-07T09:23:17;24.00;80.50
5870;DHT22;2961;47.702;9.410;2023-05-07T09:25:45;24.00;80.10
5870;DHT22;2961;47.702;9.410;2023-05-07T09:28:12;24.30;80.80
5870;DHT22;2961;47.702;9.410;2023-05-07T09:30:39;24.50;80.50
5870;DHT22;2961;47.702;9.410;2023-05-07T09:33:05;24.40;80.10
5870;DHT22;2961;47.702;9.410;2023-05-07T09:35:32;24.50;79.50
5870;DHT22;2961;47.702;9.410;2023-05-07T09:38:00;24.50;79.00
5870;DHT22;2961;47.702;9.410;2023-05-07T09:40:30;24.90;78.80
5870;DHT22;2961;47.702;9.410;2023-05-07T09:43:09;25.40;76.80
5870;DHT22;2961;47.702;9.410;2023-05-07T09:45:36;25.90;75.80
5870;DHT22;2961;47.702;9.410;2023-05-07T09:48:05;25.90;74.50
5870;DHT22;2961;47.702;9.410;2023-05-07T09:50:36;26.10;74.40
5870;DHT22;2961;47.702;9.410;2023-05-07T09:53:03;25.80;75.80
5870;DHT22;2961;47.702;9.410;2023-05-07T09:55:30;25.80;76.20
5870;DHT22;2961;47.702;9.410;2023-05-07T09:57:59;25.40;74.70
5870;DHT22;2961;47.702;9.410;2023-05-07T10:00:28;25.40;76.10
5870;DHT22;2961;47.702;9.410;2023-05-07T10:02:56;25.30;76.90
5870;DHT22;2961;47.702;9.410;2023-05-07T10:05:24;25.30;73.30
5870;DHT22;2961;47.702;9.410;2023-05-07T10:07:52;25.10;78.20
5870;DHT22;2961;47.702;9.410;2023-05-07T10:10:20;24.50;75.20
5870;DHT22;2961;47.702;9.410;2023-05-07T10:12:47;24.40;79.40
5870;DHT22;2961;47.702;9.410;2023-05-07T10:15:16;24.40;78.50
5870;DHT22;2961;47.702;9.410;2023-05-07T10:17:44;24.50;79.10
5870;DHT22;2961;47.702;9.410;2023-05-07T10:20:11;24.40;78.40
5870;DHT22;2961;47.702;9.410;2023-05-07T10:22:40;24.20;78.60
5870;DHT22;2961;47.702;9.410;2023-05-07T10:25:14;24.20;79.90
5870;DHT22;2961;47.702;9.410;2023-05-07T10:27:43;24.00;79.10
5870;DHT22;2961;47.702;9.410;2023-05-07T10:30:21;24.10;81.30
5870;DHT22;2961;47.702;9.410;2023-05-07T10:32:55;24.00;81.40
5870;DHT22;2961;47.702;9.410;2023-05-07T10:35:26;23.90;80.30
5870;DHT22;2961;47.702;9.410;2023-05-07T10:37:56;24.10;82.30
5870;DHT22;2961;47.702;9.410;2023-05-07T10:40:23;24.20;81.10
5870;DHT22;2961;47.702;9.410;2023-05-07T10:42:54;24.20;81.70
5870;DHT22;2961;47.702;9.410;2023-05-07T10:45:23;24.10;80.60
5870;DHT22;2961;47.702;9.410;2023-05-07T10:48:09;24.10;82.90
5870;DHT22;2961;47.702;9.410;2023-05-07T10:50:37;24.30;83.10
5870;DHT22;2961;47.702;9.410;2023-05-07T10:53:24;24.50;81.70
5870;DHT22;2961;47.702;9.410;2023-05-07T10:56:26;24.70;79.30
5870;DHT22;2961;47.702;9.410;2023-05-07T10:58:53;24.50;81.70
5870;DHT22;2961;47.702;9.410;2023-05-07T11:01:53;24.40;81.60
5870;DHT22;2961;47.702;9.410;2023-05-07T11:04:20;24.40;83.40
5870;DHT22;2961;47.702;9.410;2023-05-07T11:10:02;24.80;80.70
5870;DHT22;2961;47.702;9.410;2023-05-07T11:12:52;24.70;79.40
5870;DHT22;2961;47.702;9.410;2023-05-07T11:15:39;24.70;81.80
5870;DHT22;2961;47.702;9.410;2023-05-07T11:18:09;24.70;83.20
5870;DHT22;2961;47.702;9.410;2023-05-07T11:20:53;24.50;81.60
5870;DHT22;2961;47.702;9.410;2023-05-07T11:23:57;24.50;83.40
5870;DHT22;2961;47.702;9.410;2023-05-07T11:26:25;24.70;83.90
5870;DHT22;2961;47.702;9.410;2023-05-07T11:28:52;25.00;84.00
5870;DHT22;2961;47.702;9.410;2023-05-07T11:31:24;25.00;82.20
5870;DHT22;2961;47.702;9.410;2023-05-07T11:33:54;25.10;84.30
5870;DHT22;2961;47.702;9.410;2023-05-07T11:36:22;25.30;81.90
5870;DHT22;2961;47.702;9.410;2023-05-07T11:38:50;25.40;82.00
5870;DHT22;2961;47.702;9.410;2023-05-07T11:41:17;25.50;82.70
5870;DHT22;2961;47.702;9.410;2023-05-07T11:43:56;25.60;82.00
5870;DHT22;2961;47.702;9.410;2023-05-07T11:46:23;25.60;81.60
5870;DHT22;2961;47.702;9.410;2023-05-07T11:48:50;25.40;78.90
5870;DHT22;2961;47.702;9.410;2023-05-07T11:51:22;25.30;79.30
5870;DHT22;2961;47.702;9.410;2023-05-07T11:53:50;25.40;81.40
5870;DHT22;2961;47.702;9.410;2023-05-07T11:56:18;25.50;79.00
5870;DHT22;2961;47.702;9.410;2023-05-07T11:58:46;25.30;79.80
5870;DHT22;2961;47.702;9.410;2023-05-07T12:01:14;25.50;81.40
5870;DHT22;2961;47.702;9.410;2023-05-07T12:03:43;25.50;80.90
5870;DHT22;2961;47.702;9.410;2023-05-07T12:06:11;25.50;79.30
5870;DHT22;2961;47.702;9.410;2023-05-07T12:08:41;25.40;78.50
5870;DHT22;2961;47.702;9.410;2023-05-07T12:11:09;25.50;80.60
5870;DHT22;2961;47.702;9.410;2023-05-07T12:13:37;25.30;79.70
5870;DHT22;2961;47.702;9.410;2023-05-07T12:16:05;25.20;80.60
5870;DHT22;2961;47.702;9.410;2023-05-07T12:18:33;25.30;80.60
5870;DHT22;2961;47.702;9.410;2023-05-07T12:21:01;25.20;77.90
5870;DHT22;2961;47.702;9.410;2023-05-07T12:23:28;25.00;81.10
5870;DHT22;2961;47.702;9.410;2023-05-07T12:25:56;25.00;82.80
5870;DHT22;2961;47.702;9.410;2023-05-07T12:28:23;25.10;80.70
5870;DHT22;2961;47.702;9.410;2023-05-07T12:30:51;25.10;81.80
5870;DHT22;2961;47.702;9.410;2023-05-07T12:33:18;25.30;81.10
5870;DHT22;2961;47.702;9.410;2023-05-07T12:35:47;25.40;78.40
5870;DHT22;2961;47.702;9.410;2023-05-07T12:38:17;24.90;78.20
5870;DHT22;2961;47.702;9.410;2023-05-07T12:40:46;24.90;78.90
5870;DHT22;2961;47.702;9.410;2023-05-07T12:43:18;25.10;82.20
5870;DHT22;2961;47.702;9.410;2023-05-07T12:45:46;25.20;82.00
5870;DHT22;2961;47.702;9.410;2023-05-07T12:48:13;25.50;79.20
5870;DHT22;2961;47.702;9.410;2023-05-07T12:50:40;25.60;79.20
5870;DHT22;2961;47.702;9.410;2023-05-07T12:53:07;25.60;81.40
5870;DHT22;2961;47.702;9.410;2023-05-07T12:55:41;25.60;80.40
5870;DHT22;2961;47.702;9.410;2023-05-07T12:58:15;25.70;80.10
5870;DHT22;2961;47.702;9.410;2023-05-07T13:00:44;25.70;79.50
5870;DHT22;2961;47.702;9.410;2023-05-07T13:03:11;25.70;78.80
5870;DHT22;2961;47.702;9.410;2023-05-07T13:05:39;25.60;78.90
5870;DHT22;2961;47.702;9.410;2023-05-07T13:08:05;25.50;80.10
5870;DHT22;2961;47.702;9.410;2023-05-07T13:10:35;25.30;77.60
5870;DHT22;2961;47.702;9.410;2023-05-07T13:13:01;25.20;79.90
5870;DHT22;2961;47.702;9.410;2023-05-07T13:15:29;25.10;80.80
5870;DHT22;2961;47.702;9.410;2023-05-07T13:17:57;25.20;81.20
5870;DHT22;2961;47.702;9.410;2023-05-07T13:20:24;25.20;81.10
5870;DHT22;2961;47.702;9.410;2023-05-07T13:22:50;25.10;81.10
5870;DHT22;2961;47.702;9.410;2023-05-07T13:25:17;25.10;80.80
5870;DHT22;2961;47.702;9.410;2023-05-07T13:27:44;25.10;81.10
5870;DHT22;2961;47.702;9.410;2023-05-07T13:30:11;25.10;82.00
5870;DHT22;2961;47.702;9.410;2023-05-07T13:32:38;25.00;80.80
5870;DHT22;2961;47.702;9.410;2023-05-07T13:35:07;25.10;80.80
5870;DHT22;2961;47.702;9.410;2023-05-07T13:37:34;24.90;77.40
5870;DHT22;2961;47.702;9.410;2023-05-07T13:40:02;24.70;79.40
5870;DHT22;2961;47.702;9.410;2023-05-07T13:42:29;24.60;77.50
5870;DHT22;2961;47.702;9.410;2023-05-07T13:44:56;24.50;81.10
5870;DHT22;2961;47.702;9.410;2023-05-07T13:47:23;24.50;80.10
5870;DHT22;2961;47.702;9.410;2023-05-07T13:49:50;24.50;80.20
5870;DHT22;2961;47.702;9.410;2023-05-07T13:52:19;24.50;81.60
5870;DHT22;2961;47.702;9.410;2023-05-07T13:54:45;24.50;82.50
5870;DHT22;2961;47.702;9.410;2023-05-07T13:57:12;24.50;83.00
5870;DHT22;2961;47.702;9.410;2023-05-07T13:59:40;24.60;82.60
5870;DHT22;2961;47.702;9.410;2023-05-07T14:02:07;24.70;83.30
5870;DHT22;2961;47.702;9.410;2023-05-07T14:04:34;24.70;82.40
5870;DHT22;2961;47.702;9.410;2023-05-07T14:07:01;24.80;81.20
5870;DHT22;2961;47.702;9.410;2023-05-07T14:09:29;24.70;82.80
5870;DHT22;2961;47.702;9.410;2023-05-07T14:11:56;24.80;85.00
5870;DHT22;2961;47.702;9.410;2023-05-07T14:14:23;24.70;84.40
5870;DHT22;2961;47.702;9.410;2023-05-07T14:16:50;24.60;84.80
5870;DHT22;2961;47.702;9.410;2023-05-07T14:19:16;24.50;81.10
5870;DHT22;2961;47.702;9.410;2023-05-07T14:21:43;24.30;84.10
5870;DHT22;2961;47.702;9.410;2023-05-07T14:24:10;24.30;84.10
5870;DHT22;2961;47.702;9.410;2023-05-07T14:26:38;24.20;85.40
5870;DHT22;2961;47.702;9.410;2023-05-07T14:29:05;24.20;85.80
5870;DHT22;2961;47.702;9.410;2023-05-07T14:31:32;24.10;85.30
5870;DHT22;2961;47.702;9.410;2023-05-07T14:33:59;24.00;85.70
5870;DHT22;2961;47.702;9.410;2023-05-07T14:36:26;23.90;85.50
5870;DHT22;2961;47.702;9.410;2023-05-07T14:38:53;23.90;85.70
5870;DHT22;2961;47.702;9.410;2023-05-07T14:41:20;23.90;86.20
5870;DHT22;2961;47.702;9.410;2023-05-07T14:43:48;23.90;86.00
5870;DHT22;2961;47.702;9.410;2023-05-07T14:46:16;23.80;86.50
5870;DHT22;2961;47.702;9.410;2023-05-07T14:48:44;23.80;85.10
5870;DHT22;2961;47.702;9.410;2023-05-07T14:51:12;23.80;85.40
5870;DHT22;2961;47.702;9.410;2023-05-07T14:53:40;23.70;84.70
5870;DHT22;2961;47.702;9.410;2023-05-07T14:56:06;23.70;86.20
5870;DHT22;2961;47.702;9.410;2023-05-07T14:58:33;23.70;86.00
5870;DHT22;2961;47.702;9.410;2023-05-07T15:01:02;23.70;84.60
5870;DHT22;2961;47.702;9.410;2023-05-07T15:03:28;23.80;86.40
5870;DHT22;2961;47.702;9.410;2023-05-07T15:05:55;23.90;84.90
5870;DHT22;2961;47.702;9.410;2023-05-07T15:08:22;23.80;82.10
5870;DHT22;2961;47.702;9.410;2023-05-07T15:10:49;23.60;83.40
5870;DHT22;2961;47.702;9.410;2023-05-07T15:13:16;23.60;84.20
5870;DHT22;2961;47.702;9.410;2023-05-07T15:15:43;23.50;82.10
5870;DHT22;2961;47.702;9.410;2023-05-07T15:18:13;23.50;83.60
5870;DHT22;2961;47.702;9.410;2023-05-07T15:20:40;23.40;79.80
5870;DHT22;2961;47.702;9.410;2023-05-07T15:23:08;23.30;80.90
5870;DHT22;2961;47.702;9.410;2023-05-07T15:25:37;23.20;81.00
5870;DHT22;2961;47.702;9.410;2023-05-07T15:28:04;23.10;80.10
5870;DHT22;2961;47.702;9.410;2023-05-07T15:30:31;23.00;83.20
5870;DHT22;2961;47.702;9.410;2023-05-07T15:32:57;23.10;82.10
5870;DHT22;2961;47.702;9.410;2023-05-07T15:35:26;23.10;80.90
5870;DHT22;2961;47.702;9.410;2023-05-07T15:37:52;22.90;80.20
5870;DHT22;2961;47.702;9.410;2023-05-07T15:40:19;22.80;79.60
5870;DHT22;2961;47.702;9.410;2023-05-07T15:42:46;22.70;81.10
5870;DHT22;2961;47.702;9.410;2023-05-07T15:45:13;22.70;79.90
5870;DHT22;2961;47.702;9.410;2023-05-07T15:47:40;22.80;80.40
5870;DHT22;2961;47.702;9.410;2023-05-07T15:50:08;22.80;80.20
5870;DHT22;2961;47.702;9.410;2023-05-07T15:52:36;22.70;83.50
5870;DHT22;2961;47.702;9.410;2023-05-07T15:55:04;22.60;83.70
5870;DHT22;2961;47.702;9.410;2023-05-07T15:57:32;22.60;85.30
5870;DHT22;2961;47.702;9.410;2023-05-07T15:59:58;22.50;83.00
5870;DHT22;2961;47.702;9.410;2023-05-07T16:02:25;22.50;83.70
5870;DHT22;2961;47.702;9.410;2023-05-07T16:04:52;22.40;81.90
5870;DHT22;2961;47.702;9.410;2023-05-07T16:07:19;22.30;81.50
5870;DHT22;2961;47.702;9.410;2023-05-07T16:09:47;22.20;80.70